createdAt,value
2017-11-25T00:01:53.985Z,6.10
2017-11-25T00:04:21.495Z,6.10
2017-11-25T00:06:49.774Z,6.10
2017-11-25T00:09:17.244Z,6.00
2017-11-25T00:11:45.440Z,6.20
2017-11-25T00:14:13.025Z,6.20
2017-11-25T00:16:40.569Z,6.30
2017-11-25T00:19:08.069Z,6.30
2017-11-25T00:21:36.419Z,6.10
2017-11-25T00:24:03.866Z,6.10
2017-11-25T00:26:31.339Z,6.10
2017-11-25T00:28:58.782Z,6.10
2017-11-25T00:31:26.220Z,6.10
2017-11-25T00:33:53.660Z,6.20
2017-11-25T00:36:21.163Z,6.20
2017-11-25T00:38:48.579Z,6.30
2017-11-25T00:41:16.057Z,6.30
2017-11-25T00:43:43.527Z,6.40
2017-11-25T00:46:10.985Z,6.40
2017-11-25T00:48:38.407Z,6.40
2017-11-25T00:51:05.887Z,6.40
2017-11-25T00:53:33.358Z,6.30
2017-11-25T00:56:00.904Z,6.30
2017-11-25T00:58:28.477Z,6.20
2017-11-25T01:00:55.985Z,6.20
2017-11-25T01:03:23.599Z,6.30
2017-11-25T01:05:51.055Z,6.40
2017-11-25T01:08:18.491Z,6.30
2017-11-25T01:10:45.932Z,6.30
2017-11-25T01:13:13.375Z,6.30
2017-11-25T01:15:40.821Z,6.50
2017-11-25T01:18:08.265Z,6.50
2017-11-25T01:20:36.463Z,6.40
2017-11-25T01:23:03.887Z,6.40
2017-11-25T01:25:32.119Z,6.30
2017-11-25T01:27:59.593Z,6.30
2017-11-25T01:30:27.023Z,6.30
2017-11-25T01:32:54.462Z,6.30
2017-11-25T01:35:21.912Z,6.30
2017-11-25T01:37:49.360Z,6.40
2017-11-25T01:40:17.559Z,6.40
2017-11-25T01:42:44.994Z,6.30
2017-11-25T01:45:12.484Z,6.30
2017-11-25T01:47:39.915Z,6.30
2017-11-25T01:50:07.504Z,6.40
2017-11-25T01:52:34.952Z,6.60
2017-11-25T01:55:02.392Z,6.70
2017-11-25T01:57:29.829Z,6.80
2017-11-25T01:59:57.272Z,6.80
2017-11-25T02:02:25.480Z,7.00
2017-11-25T02:04:52.961Z,7.00
2017-11-25T02:07:20.402Z,7.10
2017-11-25T02:09:47.854Z,7.10
2017-11-25T02:12:15.298Z,7.10
2017-11-25T02:14:42.917Z,7.10
2017-11-25T02:17:11.157Z,7.00
2017-11-25T02:19:38.716Z,7.00
2017-11-25T02:22:06.156Z,7.00
2017-11-25T02:24:33.600Z,7.10
2017-11-25T02:27:01.097Z,7.00
2017-11-25T02:29:28.543Z,6.80
2017-11-25T02:31:55.998Z,6.60
2017-11-25T02:34:23.456Z,6.70
2017-11-25T02:36:50.907Z,6.70
2017-11-25T02:39:18.365Z,6.80
2017-11-25T02:41:45.829Z,6.90
2017-11-25T02:44:13.280Z,7.00
2017-11-25T02:46:40.741Z,7.00
2017-11-25T02:49:08.197Z,6.80
2017-11-25T02:51:35.649Z,6.80
2017-11-25T02:54:03.103Z,6.80
2017-11-25T02:56:30.645Z,6.90
2017-11-25T02:58:58.133Z,7.00
2017-11-25T03:01:25.587Z,7.00
2017-11-25T03:03:53.181Z,7.10
2017-11-25T03:06:20.795Z,7.10
2017-11-25T03:08:48.339Z,7.20
2017-11-25T03:11:15.778Z,7.20
2017-11-25T03:13:43.231Z,7.20
2017-11-25T03:16:10.670Z,7.10
2017-11-25T03:18:38.881Z,7.10
2017-11-25T03:21:06.311Z,7.00
2017-11-25T03:23:33.751Z,7.20
2017-11-25T03:26:02.092Z,7.10
2017-11-25T03:28:29.536Z,7.00
2017-11-25T03:30:57.021Z,7.00
2017-11-25T03:33:25.974Z,6.80
2017-11-25T03:35:53.407Z,6.80
2017-11-25T03:38:20.851Z,6.90
2017-11-25T03:40:49.064Z,6.90
2017-11-25T03:43:16.524Z,6.80
2017-11-25T03:45:43.993Z,6.90
2017-11-25T03:48:11.435Z,6.90
2017-11-25T03:50:38.910Z,6.90
2017-11-25T03:53:06.364Z,7.00
2017-11-25T03:55:33.795Z,7.00
2017-11-25T03:58:01.236Z,7.00
2017-11-25T04:00:28.737Z,7.00
2017-11-25T04:02:56.183Z,6.90
2017-11-25T04:05:23.652Z,6.80
2017-11-25T04:07:51.133Z,6.70
2017-11-25T04:10:18.576Z,6.80
2017-11-25T04:12:46.123Z,6.70
2017-11-25T04:15:13.556Z,6.70
2017-11-25T04:17:41.011Z,6.70
2017-11-25T04:20:08.441Z,6.70
2017-11-25T04:22:36.646Z,6.60
2017-11-25T04:25:04.183Z,6.50
2017-11-25T04:27:31.632Z,6.40
2017-11-25T04:29:59.846Z,6.30
2017-11-25T04:32:27.438Z,6.30
2017-11-25T04:34:54.868Z,6.40
2017-11-25T04:37:22.320Z,6.50
2017-11-25T04:39:49.775Z,6.50
2017-11-25T04:42:17.240Z,6.40
2017-11-25T04:44:44.672Z,6.50
2017-11-25T04:47:12.107Z,6.70
2017-11-25T04:49:39.547Z,6.70
2017-11-25T04:52:07.743Z,6.70
2017-11-25T04:54:35.192Z,6.70
2017-11-25T04:57:02.627Z,6.70
2017-11-25T04:59:30.173Z,6.70
2017-11-25T05:01:57.721Z,6.80
2017-11-25T05:04:25.165Z,6.80
2017-11-25T05:06:52.631Z,6.70
2017-11-25T05:09:20.093Z,6.80
2017-11-25T05:11:47.531Z,6.70
2017-11-25T05:14:14.993Z,6.50
2017-11-25T05:16:42.428Z,6.30
2017-11-25T05:19:09.860Z,6.20
2017-11-25T05:21:37.364Z,6.30
2017-11-25T05:24:04.792Z,6.30
2017-11-25T05:26:32.243Z,6.40
2017-11-25T05:28:59.676Z,6.30
2017-11-25T05:31:27.188Z,6.30
2017-11-25T05:33:54.636Z,6.30
2017-11-25T05:36:22.099Z,6.30
2017-11-25T05:38:49.576Z,6.30
2017-11-25T05:41:17.043Z,6.30
2017-11-25T05:43:44.483Z,6.30
2017-11-25T05:46:11.929Z,6.30
2017-11-25T05:48:39.364Z,6.40
2017-11-25T05:51:06.839Z,6.50
2017-11-25T05:53:34.279Z,6.60
2017-11-25T05:56:01.734Z,6.70
2017-11-25T05:58:29.162Z,6.70
2017-11-25T06:00:57.384Z,6.90
2017-11-25T06:03:24.848Z,6.80
2017-11-25T06:05:52.300Z,6.80
2017-11-25T06:08:19.726Z,6.80
2017-11-25T06:10:47.183Z,6.70
2017-11-25T06:13:14.636Z,6.70
2017-11-25T06:15:42.120Z,6.70
2017-11-25T06:18:09.567Z,6.70
2017-11-25T06:20:37.003Z,6.70
2017-11-25T06:23:04.688Z,6.60
2017-11-25T06:25:32.128Z,6.60
2017-11-25T06:27:59.559Z,6.60
2017-11-25T06:30:27.040Z,6.60
2017-11-25T06:32:54.520Z,6.50
2017-11-25T06:35:21.961Z,6.50
2017-11-25T06:37:49.403Z,6.50
2017-11-25T06:40:16.874Z,6.70
2017-11-25T06:42:44.338Z,6.60
2017-11-25T06:45:11.812Z,6.50
2017-11-25T06:47:39.269Z,6.40
2017-11-25T06:50:06.797Z,6.30
2017-11-25T06:52:34.256Z,6.40
2017-11-25T06:55:01.844Z,6.20
2017-11-25T06:57:29.412Z,6.20
2017-11-25T06:59:56.847Z,6.10
2017-11-25T07:02:24.300Z,6.10
2017-11-25T07:04:51.752Z,6.10
2017-11-25T07:07:19.239Z,6.20
2017-11-25T07:09:46.779Z,6.30
2017-11-25T07:12:14.245Z,6.40
2017-11-25T07:14:41.676Z,6.50
2017-11-25T07:17:09.135Z,6.40
2017-11-25T07:19:36.562Z,6.40
2017-11-25T07:22:04.014Z,6.50
2017-11-25T07:24:32.257Z,6.40
2017-11-25T07:26:59.722Z,6.30
2017-11-25T07:29:27.169Z,6.40
2017-11-25T07:31:54.728Z,6.40
2017-11-25T07:34:22.168Z,6.40
2017-11-25T07:36:49.620Z,6.40
2017-11-25T07:39:17.149Z,7.80
2017-11-25T07:41:44.649Z,6.10
2017-11-25T07:44:12.093Z,6.10
2017-11-25T07:46:39.533Z,6.10
2017-11-25T07:49:07.020Z,6.10
2017-11-25T07:51:34.464Z,6.10
2017-11-25T07:54:01.939Z,6.10
2017-11-25T07:56:29.366Z,6.20
2017-11-25T07:58:56.811Z,6.20
2017-11-25T08:01:24.252Z,6.30
2017-11-25T08:03:51.932Z,6.40
2017-11-25T08:06:19.367Z,6.30
2017-11-25T08:08:46.809Z,6.40
2017-11-25T08:11:15.011Z,6.40
2017-11-25T08:13:42.457Z,6.40
2017-11-25T08:16:09.895Z,6.50
2017-11-25T08:18:38.119Z,6.50
2017-11-25T08:21:05.573Z,6.50
2017-11-25T08:23:33.053Z,6.60
2017-11-25T08:26:00.476Z,6.70
2017-11-25T08:28:27.953Z,6.70
2017-11-25T08:30:55.489Z,6.70
2017-11-25T08:33:22.912Z,6.50
2017-11-25T08:35:51.118Z,6.30
2017-11-25T08:38:18.585Z,6.20
2017-11-25T08:40:46.060Z,6.20
2017-11-25T08:43:13.498Z,6.10
2017-11-25T08:45:40.923Z,6.00
2017-11-25T08:48:08.368Z,6.00
2017-11-25T08:50:36.594Z,6.00
2017-11-25T08:53:04.039Z,5.90
2017-11-25T08:55:31.509Z,6.00
2017-11-25T08:57:58.949Z,5.90
2017-11-25T09:00:26.430Z,5.90
2017-11-25T09:02:53.855Z,5.80
2017-11-25T09:05:21.343Z,5.70
2017-11-25T09:07:48.905Z,5.70
2017-11-25T09:10:16.555Z,5.70
2017-11-25T09:12:44.068Z,5.60
2017-11-25T09:15:11.695Z,5.60
2017-11-25T09:17:39.123Z,5.70
2017-11-25T09:20:06.564Z,5.80
2017-11-25T09:22:34.013Z,5.80
2017-11-25T09:25:01.465Z,5.70
2017-11-25T09:27:28.979Z,5.70
2017-11-25T09:29:56.415Z,5.60
2017-11-25T09:32:23.864Z,5.50
2017-11-25T09:34:51.353Z,5.30
2017-11-25T09:37:18.969Z,5.20
2017-11-25T09:39:46.432Z,5.10
2017-11-25T09:42:13.885Z,5.00
2017-11-25T09:44:41.312Z,5.00
2017-11-25T09:47:09.512Z,5.00
2017-11-25T09:49:36.952Z,4.90
2017-11-25T09:52:04.392Z,5.00
2017-11-25T09:54:32.604Z,5.20
2017-11-25T09:57:00.071Z,5.10
2017-11-25T09:59:27.527Z,5.20
2017-11-25T10:01:54.996Z,5.20
2017-11-25T10:04:22.560Z,5.10
2017-11-25T10:06:50.012Z,5.00
2017-11-25T10:09:17.485Z,5.00
2017-11-25T10:11:45.024Z,5.10
2017-11-25T10:14:12.463Z,5.10
2017-11-25T10:16:39.926Z,5.20
2017-11-25T10:19:07.362Z,5.30
2017-11-25T10:21:34.851Z,5.40
2017-11-25T10:24:02.295Z,5.30
2017-11-25T10:26:29.763Z,5.30
2017-11-25T10:28:58.248Z,5.20
2017-11-25T10:31:25.824Z,5.20
2017-11-25T10:33:53.256Z,5.20
2017-11-25T10:36:20.697Z,5.10
2017-11-25T10:38:48.137Z,5.10
2017-11-25T10:41:15.589Z,5.10
2017-11-25T10:43:43.012Z,5.00
2017-11-25T10:46:11.236Z,5.00
2017-11-25T10:48:38.716Z,4.90
2017-11-25T10:51:06.190Z,5.00
2017-11-25T10:53:33.724Z,5.00
2017-11-25T10:56:01.226Z,5.10
2017-11-25T10:58:28.659Z,5.00
2017-11-25T11:00:56.108Z,5.00
2017-11-25T11:03:23.558Z,5.00
2017-11-25T11:05:51.116Z,5.00
2017-11-25T11:08:18.549Z,5.10
2017-11-25T11:10:45.998Z,5.20
2017-11-25T11:13:13.438Z,5.30
2017-11-25T11:15:41.647Z,5.40
2017-11-25T11:18:09.111Z,5.40
2017-11-25T11:20:36.552Z,5.40
2017-11-25T11:23:03.997Z,5.50
2017-11-25T11:25:31.499Z,5.60
2017-11-25T11:27:58.960Z,5.50
2017-11-25T11:30:26.392Z,5.50
2017-11-25T11:32:53.859Z,5.50
2017-11-25T11:35:21.312Z,5.60
2017-11-25T11:37:48.766Z,5.70
2017-11-25T11:40:16.223Z,5.70
2017-11-25T11:42:43.694Z,5.70
2017-11-25T11:45:11.317Z,5.70
2017-11-25T11:47:38.748Z,5.70
2017-11-25T11:50:07.084Z,5.70
2017-11-25T11:52:34.560Z,5.70
2017-11-25T11:55:01.991Z,5.70
2017-11-25T11:57:29.544Z,5.70
2017-11-25T11:59:56.984Z,5.60
2017-11-25T12:02:24.452Z,5.60
2017-11-25T12:04:51.922Z,5.60
2017-11-25T12:07:19.361Z,5.60
2017-11-25T12:09:46.792Z,5.60
2017-11-25T12:12:14.236Z,5.60
2017-11-25T12:14:41.695Z,5.70
2017-11-25T12:17:09.226Z,5.70
2017-11-25T12:19:36.663Z,5.70
2017-11-25T12:22:04.103Z,5.70
2017-11-25T12:24:31.559Z,5.70
2017-11-25T12:26:59.015Z,5.70
2017-11-25T12:29:26.457Z,5.60
2017-11-25T12:31:53.906Z,5.60
2017-11-25T12:34:21.343Z,5.60
2017-11-25T12:36:49.571Z,5.60
2017-11-25T12:39:17.017Z,5.50
2017-11-25T12:41:44.673Z,5.60
2017-11-25T12:44:12.108Z,5.60
2017-11-25T12:46:39.536Z,5.60
2017-11-25T12:49:06.985Z,5.60
2017-11-25T12:51:34.433Z,5.60
2017-11-25T12:54:01.875Z,5.60
2017-11-25T12:56:30.648Z,5.60
2017-11-25T12:58:58.496Z,5.50
2017-11-25T13:01:25.927Z,5.50
2017-11-25T13:03:54.123Z,5.40
2017-11-25T13:06:21.634Z,5.40
2017-11-25T13:08:49.075Z,5.50
2017-11-25T13:11:16.607Z,5.40
2017-11-25T13:13:44.166Z,5.30
2017-11-25T13:16:11.590Z,5.30
2017-11-25T13:18:39.807Z,5.20
2017-11-25T13:21:07.257Z,5.20
2017-11-25T13:23:34.743Z,5.20
2017-11-25T13:26:02.200Z,5.30
2017-11-25T13:28:29.787Z,5.30
2017-11-25T13:30:57.303Z,5.40
2017-11-25T13:33:24.747Z,5.40
2017-11-25T13:35:52.191Z,5.50
2017-11-25T13:38:19.640Z,5.40
2017-11-25T13:40:47.092Z,5.40
2017-11-25T13:43:14.544Z,5.40
2017-11-25T13:45:42.043Z,5.40
2017-11-25T13:48:09.488Z,5.40
2017-11-25T13:50:36.946Z,5.50
2017-11-25T13:53:04.409Z,5.60
2017-11-25T13:55:31.839Z,5.60
2017-11-25T13:57:59.418Z,5.70
2017-11-25T14:00:26.856Z,5.70
2017-11-25T14:02:54.437Z,5.70
2017-11-25T14:05:21.904Z,5.80
2017-11-25T14:07:49.341Z,5.80
2017-11-25T14:10:16.795Z,5.90
2017-11-25T14:12:44.251Z,6.00
2017-11-25T14:15:11.716Z,6.00
2017-11-25T14:17:39.173Z,5.90
2017-11-25T14:20:06.643Z,5.90
2017-11-25T14:22:34.076Z,6.00
2017-11-25T14:25:01.565Z,6.00
2017-11-25T14:27:29.208Z,6.00
2017-11-25T14:29:56.684Z,6.00
2017-11-25T14:32:24.112Z,6.00
2017-11-25T14:34:51.603Z,6.00
2017-11-25T14:37:19.039Z,6.00
2017-11-25T14:39:46.497Z,6.00
2017-11-25T14:42:13.974Z,6.00
2017-11-25T14:44:41.419Z,6.00
2017-11-25T14:47:08.875Z,6.00
2017-11-25T14:49:36.422Z,6.00
2017-11-25T14:52:03.865Z,6.10
2017-11-25T14:54:31.455Z,6.10
2017-11-25T14:56:58.949Z,6.20
2017-11-25T14:59:26.372Z,6.20
2017-11-25T15:01:53.823Z,6.20
2017-11-25T15:04:21.272Z,6.30
2017-11-25T15:06:48.736Z,6.30
2017-11-25T15:09:16.212Z,6.30
2017-11-25T15:11:43.646Z,6.30
2017-11-25T15:14:11.079Z,6.30
2017-11-25T15:16:38.576Z,6.20
2017-11-25T15:19:06.015Z,6.20
2017-11-25T15:21:33.483Z,6.20
2017-11-25T15:24:00.960Z,6.20
2017-11-25T15:26:28.407Z,6.20
2017-11-25T15:28:55.852Z,6.20
2017-11-25T15:31:23.311Z,6.20
2017-11-25T15:33:50.760Z,6.20
2017-11-25T15:36:18.204Z,6.10
2017-11-25T15:38:45.684Z,6.10
2017-11-25T15:41:13.136Z,6.10
2017-11-25T15:43:40.584Z,5.90
2017-11-25T15:46:08.043Z,6.00
2017-11-25T15:48:35.607Z,6.00
2017-11-25T15:51:03.072Z,6.00
2017-11-25T15:53:30.604Z,5.90
2017-11-25T15:55:58.031Z,5.90
2017-11-25T15:58:25.468Z,5.90
2017-11-25T16:00:53.782Z,5.80
2017-11-25T16:03:21.275Z,5.80
2017-11-25T16:05:48.828Z,5.80
2017-11-25T16:08:16.301Z,5.80
2017-11-25T16:10:43.944Z,5.80
2017-11-25T16:13:11.383Z,5.70
2017-11-25T16:15:38.839Z,5.70
2017-11-25T16:18:06.386Z,5.60
2017-11-25T16:20:33.817Z,5.60
2017-11-25T16:23:01.293Z,5.60
2017-11-25T16:25:28.781Z,5.60
2017-11-25T16:27:56.243Z,5.60
2017-11-25T16:30:23.696Z,5.60
2017-11-25T16:32:51.153Z,5.60
2017-11-25T16:35:18.591Z,5.50
2017-11-25T16:37:46.020Z,5.50
2017-11-25T16:40:13.528Z,5.50
2017-11-25T16:42:41.086Z,5.40
2017-11-25T16:45:08.543Z,5.40
2017-11-25T16:47:36.004Z,5.40
2017-11-25T16:50:03.570Z,5.30
2017-11-25T16:52:31.121Z,5.40
2017-11-25T16:54:58.620Z,5.40
2017-11-25T16:57:26.091Z,5.40
2017-11-25T16:59:53.511Z,5.40
2017-11-25T17:02:21.747Z,5.40
2017-11-25T17:04:49.220Z,5.30
2017-11-25T17:07:16.746Z,5.40
2017-11-25T17:09:44.253Z,5.40
2017-11-25T17:12:11.872Z,5.40
2017-11-25T17:14:39.295Z,5.40
2017-11-25T17:17:06.847Z,5.40
2017-11-25T17:19:34.498Z,5.30
2017-11-25T17:22:03.503Z,5.30
2017-11-25T17:24:30.969Z,5.30
2017-11-25T17:26:58.552Z,5.30
2017-11-25T17:29:26.084Z,5.30
2017-11-25T17:31:53.560Z,5.30
2017-11-25T17:34:21.202Z,5.30
2017-11-25T17:36:48.738Z,5.20
2017-11-25T17:39:16.173Z,5.20
2017-11-25T17:41:43.675Z,5.20
2017-11-25T17:44:11.160Z,5.10
2017-11-25T17:46:38.648Z,5.10
2017-11-25T17:49:06.089Z,5.10
2017-11-25T17:51:33.549Z,4.90
2017-11-25T17:54:00.988Z,5.00
2017-11-25T17:56:28.476Z,4.90
2017-11-25T17:58:55.920Z,4.90
2017-11-25T18:01:23.384Z,4.90
2017-11-25T18:03:50.822Z,4.80
2017-11-25T18:06:18.268Z,4.80
2017-11-25T18:08:45.720Z,4.80
2017-11-25T18:11:13.174Z,4.70
2017-11-25T18:13:40.660Z,4.80
2017-11-25T18:16:08.196Z,4.70
2017-11-25T18:18:35.668Z,4.70
2017-11-25T18:21:03.102Z,4.70
2017-11-25T18:23:30.564Z,4.60
2017-11-25T18:25:58.051Z,4.50
2017-11-25T18:28:25.559Z,4.50
2017-11-25T18:30:53.059Z,4.50
2017-11-25T18:33:20.489Z,4.50
2017-11-25T18:35:47.944Z,4.50
2017-11-25T18:38:15.404Z,4.50
2017-11-25T18:40:42.868Z,4.50
2017-11-25T18:43:10.307Z,4.50
2017-11-25T18:45:37.795Z,4.50
2017-11-25T18:48:05.248Z,4.50
2017-11-25T18:50:32.772Z,4.50
2017-11-25T18:53:00.356Z,4.50
2017-11-25T18:55:27.816Z,4.60
2017-11-25T18:57:55.261Z,4.50
2017-11-25T19:00:22.806Z,4.50
2017-11-25T19:02:50.519Z,4.50
2017-11-25T19:05:17.955Z,4.50
2017-11-25T19:07:45.441Z,4.50
2017-11-25T19:10:13.683Z,4.50
2017-11-25T19:12:41.123Z,4.40
2017-11-25T19:15:08.612Z,4.50
2017-11-25T19:17:36.050Z,4.50
2017-11-25T19:20:03.930Z,4.50
2017-11-25T19:22:31.369Z,4.40
2017-11-25T19:24:58.817Z,4.40
2017-11-25T19:27:26.278Z,4.40
2017-11-25T19:29:53.723Z,4.40
2017-11-25T19:32:21.210Z,4.40
2017-11-25T19:34:48.647Z,4.40
2017-11-25T19:37:16.111Z,4.40
2017-11-25T19:39:43.666Z,4.30
2017-11-25T19:42:11.144Z,4.30
2017-11-25T19:44:38.599Z,4.30
2017-11-25T19:47:06.085Z,4.30
2017-11-25T19:49:34.335Z,4.30
2017-11-25T19:52:01.846Z,4.20
2017-11-25T19:54:29.353Z,4.20
2017-11-25T19:56:56.892Z,4.20
2017-11-25T19:59:24.349Z,4.20
2017-11-25T20:01:51.880Z,4.10
2017-11-25T20:04:19.306Z,4.10
2017-11-25T20:06:47.500Z,4.10
2017-11-25T20:09:14.934Z,4.00
2017-11-25T20:11:43.177Z,4.10
2017-11-25T20:14:10.655Z,4.00
2017-11-25T20:16:39.037Z,4.00
2017-11-25T20:19:06.776Z,4.00
2017-11-25T20:21:34.333Z,4.00
2017-11-25T20:24:01.806Z,3.90
2017-11-25T20:26:29.264Z,3.90
2017-11-25T20:28:56.735Z,3.90
2017-11-25T20:31:24.279Z,3.90
2017-11-25T20:33:52.736Z,3.90
2017-11-25T20:36:20.227Z,3.80
2017-11-25T20:38:47.684Z,3.80
2017-11-25T20:41:15.880Z,3.70
2017-11-25T20:43:44.120Z,3.70
2017-11-25T20:46:11.583Z,3.70
2017-11-25T20:48:39.135Z,3.70
2017-11-25T20:51:06.592Z,3.70
2017-11-25T20:53:34.029Z,3.70
2017-11-25T20:56:01.471Z,3.70
2017-11-25T20:58:28.911Z,3.70
2017-11-25T21:00:56.435Z,3.70
2017-11-25T21:03:24.004Z,3.70
2017-11-25T21:05:52.223Z,3.60
2017-11-25T21:08:19.663Z,3.60
2017-11-25T21:10:47.108Z,3.70
2017-11-25T21:13:15.364Z,3.70
2017-11-25T21:15:43.630Z,3.70
2017-11-25T21:18:11.249Z,3.70
2017-11-25T21:20:38.703Z,3.70
2017-11-25T21:23:06.182Z,3.70
2017-11-25T21:25:33.672Z,3.70
2017-11-25T21:28:01.893Z,3.70
2017-11-25T21:30:29.353Z,3.70
2017-11-25T21:32:56.914Z,3.70
2017-11-25T21:35:24.418Z,3.70
2017-11-25T21:37:52.656Z,3.80
2017-11-25T21:40:20.092Z,3.70
2017-11-25T21:42:47.532Z,3.80
2017-11-25T21:45:15.009Z,3.80
2017-11-25T21:47:42.448Z,3.80
2017-11-25T21:50:09.911Z,3.80
2017-11-25T21:52:37.404Z,3.80
2017-11-25T21:55:04.853Z,3.70
2017-11-25T21:57:32.298Z,3.70
2017-11-25T21:59:59.748Z,3.70
2017-11-25T22:02:27.225Z,3.60
2017-11-25T22:04:54.667Z,3.60
2017-11-25T22:07:22.104Z,3.60
2017-11-25T22:09:49.594Z,3.60
2017-11-25T22:12:17.043Z,3.60
2017-11-25T22:14:44.510Z,3.50
2017-11-25T22:17:11.914Z,3.50
2017-11-25T22:19:40.149Z,3.50
2017-11-25T22:22:07.612Z,3.50
2017-11-25T22:24:35.064Z,3.50
2017-11-25T22:27:02.615Z,3.50
2017-11-25T22:29:30.055Z,3.50
2017-11-25T22:31:57.489Z,3.50
2017-11-25T22:34:24.935Z,3.50
2017-11-25T22:36:52.446Z,3.50
2017-11-25T22:39:19.908Z,3.50
2017-11-25T22:41:47.448Z,3.50
2017-11-25T22:44:14.911Z,3.40
2017-11-25T22:46:42.349Z,3.40
2017-11-25T22:49:09.797Z,3.40
2017-11-25T22:51:37.497Z,3.40
2017-11-25T22:54:05.047Z,3.40
2017-11-25T22:56:32.512Z,3.40
2017-11-25T22:58:59.975Z,3.40
2017-11-25T23:01:27.421Z,3.40
2017-11-25T23:03:54.872Z,3.40
2017-11-25T23:06:22.315Z,3.30
2017-11-25T23:08:49.761Z,3.30
2017-11-25T23:11:17.209Z,3.30
2017-11-25T23:13:44.674Z,3.30
2017-11-25T23:16:12.264Z,3.30
2017-11-25T23:18:39.708Z,3.30
2017-11-25T23:21:07.181Z,3.30
2017-11-25T23:23:34.623Z,3.30
2017-11-25T23:26:02.079Z,3.20
2017-11-25T23:28:29.638Z,3.30
2017-11-25T23:30:57.097Z,3.20
2017-11-25T23:33:24.531Z,3.20
2017-11-25T23:35:51.987Z,3.20
2017-11-25T23:38:19.467Z,3.20
2017-11-25T23:40:46.916Z,3.20
2017-11-25T23:43:14.386Z,3.20
2017-11-25T23:45:41.829Z,3.20
2017-11-25T23:48:09.273Z,3.20
2017-11-25T23:50:36.728Z,3.20
2017-11-25T23:53:04.212Z,3.20
2017-11-25T23:55:31.779Z,3.20
2017-11-25T23:57:59.219Z,3.30
